Time;durP1;ratioP1;P1;durP2;ratioP2;P2;SDS_P1;SDS_P2;PMS_P1;PMS_P2;Temp;Humidity;BMP_temperature;BMP_pressure;BME280_temperature;BME280_humidity;BME280_pressure;Samples;Min_cycle;Max_cycle;Signal;HPM_P1;HPM_P2
2021/01/31 00:00:41;;;;;;;3.83;2.50;;;2.10;65.60;;;;;;5031006;28;20186;-72
2021/01/31 00:03:17;;;;;;;6.63;3.10;;;2.10;65.70;;;;;;4999552;28;20216;-71
2021/01/31 00:05:44;;;;;;;3.27;2.30;;;2.10;66.00;;;;;;4994562;28;20929;-72
2021/01/31 00:08:11;;;;;;;7.47;3.10;;;2.10;66.00;;;;;;4993959;28;20506;-71
2021/01/31 00:10:37;;;;;;;5.77;3.43;;;2.00;66.10;;;;;;5011874;28;20802;-71
2021/01/31 00:13:05;;;;;;;3.70;2.50;;;2.00;66.20;;;;;;5016090;28;20450;-74
2021/01/31 00:15:33;;;;;;;5.87;2.80;;;2.00;66.20;;;;;;5014614;28;20260;-72
2021/01/31 00:18:00;;;;;;;4.30;2.37;;;2.00;66.30;;;;;;5007812;28;20488;-73
2021/01/31 00:20:28;;;;;;;4.47;3.30;;;2.00;66.40;;;;;;4993763;28;20415;-72
2021/01/31 00:22:54;;;;;;;4.60;2.83;;;2.00;66.40;;;;;;4993211;28;20486;-72
2021/01/31 00:25:20;;;;;;;6.20;2.93;;;2.00;66.50;;;;;;4993896;28;20407;-72
2021/01/31 00:27:46;;;;;;;5.30;2.53;;;2.00;66.60;;;;;;4992780;28;20645;-72
2021/01/31 00:30:17;;;;;;;4.63;2.80;;;2.00;66.30;;;;;;4993484;28;20262;-71
2021/01/31 00:32:43;;;;;;;5.03;3.00;;;2.00;66.20;;;;;;4994333;28;20422;-73
2021/01/31 00:35:10;;;;;;;6.07;3.43;;;2.00;66.20;;;;;;4991998;28;20435;-71
2021/01/31 00:37:36;;;;;;;6.07;3.10;;;2.00;66.40;;;;;;4992837;28;20414;-71
2021/01/31 00:40:03;;;;;;;3.27;2.23;;;2.00;66.20;;;;;;5008137;28;20426;-73
2021/01/31 00:42:29;;;;;;;5.27;2.87;;;2.00;66.20;;;;;;4993626;28;20199;-73
2021/01/31 00:44:54;;;;;;;4.50;2.77;;;2.00;66.10;;;;;;4991851;28;20429;-72
2021/01/31 00:47:21;;;;;;;5.73;3.53;;;2.00;65.80;;;;;;4992656;28;20243;-71
2021/01/31 00:49:49;;;;;;;5.73;3.13;;;2.00;65.70;;;;;;4993265;28;20168;-73
2021/01/31 00:52:15;;;;;;;4.57;2.97;;;2.00;65.70;;;;;;4992358;28;20469;-72
2021/01/31 00:54:42;;;;;;;6.13;3.27;;;2.00;65.00;;;;;;4976038;28;20761;-71
2021/01/31 00:57:08;;;;;;;6.53;3.20;;;2.00;65.20;;;;;;5007973;28;20430;-71
2021/01/31 00:59:35;;;;;;;8.20;3.60;;;2.00;65.40;;;;;;4992250;28;20465;-72
2021/01/31 01:02:06;;;;;;;4.23;2.67;;;2.00;65.50;;;;;;4993031;28;20948;-70
2021/01/31 01:04:32;;;;;;;3.93;2.70;;;2.00;65.50;;;;;;4992075;28;20211;-75
2021/01/31 01:07:05;;;;;;;5.77;3.70;;;2.00;65.50;;;;;;4993398;28;20407;-71
2021/01/31 01:09:31;;;;;;;5.00;3.00;;;2.00;65.50;;;;;;4994299;28;20486;-72
2021/01/31 01:11:57;;;;;;;7.30;3.80;;;2.00;65.50;;;;;;4992416;28;20186;-71
2021/01/31 01:14:22;;;;;;;5.80;3.60;;;1.90;65.40;;;;;;4993071;28;20547;-72
2021/01/31 01:16:48;;;;;;;3.20;2.73;;;1.90;65.60;;;;;;4992506;28;20168;-71
2021/01/31 01:19:14;;;;;;;5.17;3.30;;;1.90;65.80;;;;;;4992857;28;20167;-71
2021/01/31 01:21:40;;;;;;;3.90;3.17;;;1.90;65.80;;;;;;4992470;28;20249;-72
2021/01/31 01:24:06;;;;;;;6.43;3.60;;;1.90;65.60;;;;;;4992352;28;20196;-72
2021/01/31 01:26:32;;;;;;;4.93;2.93;;;1.80;65.70;;;;;;4992494;28;20931;-70
2021/01/31 01:28:58;;;;;;;6.47;3.07;;;1.80;66.00;;;;;;4992129;28;20418;-71
2021/01/31 01:31:24;;;;;;;6.73;3.70;;;1.80;66.30;;;;;;4992569;28;20414;-72
2021/01/31 01:33:50;;;;;;;6.03;3.50;;;1.70;66.40;;;;;;4992780;28;20442;-71
2021/01/31 01:36:17;;;;;;;7.37;3.50;;;1.70;66.50;;;;;;5007787;28;20413;-71
2021/01/31 01:38:43;;;;;;;8.40;3.00;;;1.70;66.50;;;;;;4993454;28;20423;-72
2021/01/31 01:41:08;;;;;;;5.33;3.13;;;1.70;66.50;;;;;;4993491;28;20406;-72
2021/01/31 01:43:34;;;;;;;7.00;3.77;;;1.70;66.60;;;;;;4992527;28;20450;-73
2021/01/31 01:46:18;;;;;;;5.93;3.90;;;1.70;67.00;;;;;;4992854;28;20275;-73
2021/01/31 01:49:20;;;;;;;6.10;3.00;;;1.70;67.10;;;;;;4992276;28;20167;-71
2021/01/31 01:51:51;;;;;;;5.80;3.17;;;1.60;66.90;;;;;;4999089;28;20461;-72
2021/01/31 01:54:26;;;;;;;5.13;3.63;;;1.60;66.90;;;;;;4992733;28;20407;-71
2021/01/31 01:57:05;;;;;;;6.17;3.60;;;1.60;67.00;;;;;;4992461;28;20446;-73
2021/01/31 01:59:33;;;;;;;5.80;3.13;;;1.50;67.00;;;;;;4999827;28;20419;-71
2021/01/31 02:02:37;;;;;;;8.83;4.10;;;1.50;67.20;;;;;;4977174;28;20446;-71
2021/01/31 02:05:06;;;;;;;7.87;3.43;;;1.50;67.50;;;;;;4990704;28;20431;-74
2021/01/31 02:07:32;;;;;;;6.80;3.30;;;1.40;67.60;;;;;;4996285;28;21047;-72
2021/01/31 02:09:58;;;;;;;6.50;3.30;;;1.30;67.60;;;;;;4996694;28;20853;-72
2021/01/31 02:12:26;;;;;;;7.07;3.43;;;1.30;67.90;;;;;;4997230;28;20430;-72
2021/01/31 02:14:56;;;;;;;5.83;3.33;;;1.20;67.90;;;;;;4997131;28;20175;-73
2021/01/31 02:17:39;;;;;;;7.47;4.30;;;1.20;68.00;;;;;;4996906;28;20833;-72
2021/01/31 02:20:36;;;;;;;8.43;4.20;;;1.20;68.10;;;;;;4995477;28;20477;-72
2021/01/31 02:23:23;;;;;;;6.03;3.87;;;1.20;68.30;;;;;;4994622;28;20828;-73
2021/01/31 02:25:58;;;;;;;6.80;3.67;;;1.10;68.10;;;;;;5010431;28;20407;-74
2021/01/31 02:28:35;;;;;;;5.70;4.10;;;1.10;68.20;;;;;;5009904;28;20473;-72
2021/01/31 02:31:18;;;;;;;4.67;3.80;;;1.10;68.30;;;;;;4995218;28;20403;-72
2021/01/31 02:33:57;;;;;;;6.20;3.60;;;1.10;68.40;;;;;;5010362;28;20483;-72
2021/01/31 02:36:35;;;;;;;6.43;4.27;;;1.10;68.40;;;;;;4995013;28;21280;-73
2021/01/31 02:39:20;;;;;;;9.00;4.40;;;1.00;68.30;;;;;;4994841;28;20419;-73
2021/01/31 02:42:10;;;;;;;11.23;4.63;;;1.00;68.40;;;;;;4995461;28;20545;-72
2021/01/31 02:44:41;;;;;;;6.03;3.77;;;0.90;68.60;;;;;;4994531;28;20424;-73
2021/01/31 02:47:14;;;;;;;8.90;4.53;;;0.90;68.70;;;;;;4994734;28;20407;-72
2021/01/31 02:49:56;;;;;;;10.87;4.80;;;0.90;69.10;;;;;;4994928;28;20510;-73
2021/01/31 02:52:40;;;;;;;7.37;4.17;;;0.80;69.10;;;;;;4997109;28;20458;-72
2021/01/31 02:55:29;;;;;;;9.90;4.70;;;0.80;69.20;;;;;;4995555;28;20769;-71
2021/01/31 02:58:16;;;;;;;7.97;4.60;;;0.80;69.60;;;;;;4994335;28;20394;-73
2021/01/31 03:00:57;;;;;;;8.27;4.20;;;0.70;69.70;;;;;;4994816;28;20450;-72
2021/01/31 03:03:38;;;;;;;6.40;3.97;;;0.70;70.00;;;;;;4993595;28;20470;-73
2021/01/31 03:06:09;;;;;;;7.40;4.10;;;0.60;69.90;;;;;;4996233;28;20465;-72
2021/01/31 03:08:48;;;;;;;6.27;4.20;;;0.60;70.00;;;;;;4994416;28;20919;-72
2021/01/31 03:11:33;;;;;;;7.93;3.73;;;0.60;70.30;;;;;;4994547;28;20765;-71
2021/01/31 03:14:04;;;;;;;7.30;4.60;;;0.50;70.50;;;;;;5008584;28;20514;-71
2021/01/31 03:16:59;;;;;;;9.60;4.60;;;0.50;70.90;;;;;;4994349;28;20407;-70
2021/01/31 03:19:31;;;;;;;7.07;4.37;;;0.50;70.90;;;;;;4992869;28;20477;-71
2021/01/31 03:22:01;;;;;;;7.43;4.40;;;0.40;70.90;;;;;;4995062;28;20418;-71
2021/01/31 03:24:48;;;;;;;10.93;5.10;;;0.40;70.90;;;;;;4993748;28;20454;-72
2021/01/31 03:27:48;;;;;;;9.23;5.13;;;0.40;71.00;;;;;;4994885;28;20411;-71
2021/01/31 03:30:15;;;;;;;14.47;6.50;;;0.40;71.00;;;;;;5000401;28;20826;-72
2021/01/31 03:32:46;;;;;;;9.20;5.20;;;0.40;71.40;;;;;;4992632;28;20426;-72
2021/01/31 03:35:36;;;;;;;10.30;6.33;;;0.40;71.20;;;;;;4993829;28;20422;-74
2021/01/31 03:38:21;;;;;;;11.33;5.90;;;0.40;71.20;;;;;;4993889;28;20972;-72
2021/01/31 03:40:51;;;;;;;11.03;6.37;;;0.40;71.20;;;;;;4993996;28;20403;-72
2021/01/31 03:43:17;;;;;;;8.20;4.60;;;0.40;71.20;;;;;;4993905;28;20455;-71
2021/01/31 03:45:58;;;;;;;12.90;7.00;;;0.40;71.10;;;;;;4994371;28;20667;-73
2021/01/31 03:48:27;;;;;;;11.90;5.93;;;0.40;71.20;;;;;;4993660;28;20978;-73
2021/01/31 03:50:53;;;;;;;10.97;5.83;;;0.30;71.20;;;;;;4994192;28;20402;-73
2021/01/31 03:53:19;;;;;;;8.27;5.37;;;0.40;71.20;;;;;;4992551;28;20441;-71
2021/01/31 03:55:45;;;;;;;12.90;6.70;;;0.30;71.20;;;;;;4992314;28;20861;-71
2021/01/31 03:58:15;;;;;;;11.97;6.67;;;0.30;71.20;;;;;;4992880;28;20565;-72
2021/01/31 04:00:57;;;;;;;11.90;5.73;;;0.30;71.10;;;;;;4994013;28;20415;-72
2021/01/31 04:03:29;;;;;;;11.60;6.80;;;0.30;71.30;;;;;;4992312;28;20558;-72
2021/01/31 04:06:11;;;;;;;9.60;5.27;;;0.20;71.40;;;;;;4994223;28;20414;-71
2021/01/31 04:08:40;;;;;;;11.97;6.30;;;0.30;71.70;;;;;;4994820;28;20969;-72
2021/01/31 04:11:05;;;;;;;12.03;5.10;;;0.20;71.30;;;;;;4996088;28;20442;-70
2021/01/31 04:13:34;;;;;;;10.90;7.17;;;0.20;71.30;;;;;;4998642;28;20442;-73
2021/01/31 04:16:03;;;;;;;11.27;5.37;;;0.20;71.60;;;;;;5015906;28;20410;-71
2021/01/31 04:18:28;;;;;;;11.40;5.67;;;0.20;71.60;;;;;;5003393;28;20622;-71
2021/01/31 04:20:54;;;;;;;9.20;4.90;;;0.20;71.60;;;;;;4994767;28;20871;-71
2021/01/31 04:23:21;;;;;;;10.23;5.00;;;0.10;71.80;;;;;;4996109;28;20518;-72
2021/01/31 04:25:49;;;;;;;13.73;5.87;;;0.10;71.90;;;;;;4999499;28;20433;-71
2021/01/31 04:28:20;;;;;;;10.20;5.40;;;0.10;72.20;;;;;;5016598;28;20425;-71
2021/01/31 04:30:50;;;;;;;12.90;5.83;;;0.10;72.20;;;;;;5015942;28;20421;-72
2021/01/31 04:33:16;;;;;;;11.47;5.30;;;0.10;72.30;;;;;;5003639;28;20431;-73
2021/01/31 04:35:41;;;;;;;12.33;5.93;;;0.10;72.20;;;;;;4993379;28;20429;-71
2021/01/31 04:38:09;;;;;;;9.30;6.30;;;0.10;72.50;;;;;;4991474;28;20837;-72
2021/01/31 04:40:35;;;;;;;9.13;5.63;;;0.00;72.50;;;;;;4993396;28;20369;-72
2021/01/31 04:43:03;;;;;;;9.00;5.20;;;0.00;72.90;;;;;;4993253;28;20450;-72
2021/01/31 04:45:28;;;;;;;14.93;6.03;;;0.00;72.90;;;;;;4992869;28;20403;-72
2021/01/31 04:48:37;;;;;;;11.40;6.37;;;0.00;73.10;;;;;;4992637;28;20920;-72
2021/01/31 04:51:06;;;;;;;9.07;5.17;;;0.00;73.10;;;;;;4997254;28;20179;-72
2021/01/31 04:54:16;;;;;;;10.07;5.67;;;-0.10;73.10;;;;;;5011694;28;20437;-72
2021/01/31 04:56:56;;;;;;;12.53;5.83;;;-0.10;73.50;;;;;;5016286;28;20498;-72
2021/01/31 04:59:36;;;;;;;12.53;6.17;;;-0.10;73.30;;;;;;5012250;28;20402;-72
2021/01/31 05:02:34;;;;;;;11.13;6.10;;;-0.10;73.50;;;;;;5010548;28;20449;-72
2021/01/31 05:05:01;;;;;;;10.03;5.30;;;-0.10;73.50;;;;;;5012410;28;20422;-72
2021/01/31 05:07:36;;;;;;;12.90;7.47;;;-0.20;73.50;;;;;;5010964;28;20406;-72
2021/01/31 05:10:04;;;;;;;15.00;7.47;;;-0.20;74.10;;;;;;5012285;28;20925;-72
2021/01/31 05:12:49;;;;;;;14.97;7.10;;;-0.20;74.00;;;;;;5027562;28;20792;-71
2021/01/31 05:15:27;;;;;;;14.97;6.10;;;-0.30;74.20;;;;;;5012247;28;20406;-71
2021/01/31 05:17:56;;;;;;;13.93;7.17;;;-0.20;74.50;;;;;;5011815;28;20402;-71
2021/01/31 05:20:25;;;;;;;17.20;7.77;;;-0.30;74.40;;;;;;5012113;28;20441;-71
2021/01/31 05:22:53;;;;;;;11.50;6.50;;;-0.30;74.50;;;;;;5026536;28;20509;-71
2021/01/31 05:25:24;;;;;;;11.63;7.30;;;-0.20;74.50;;;;;;5011690;28;20405;-71
2021/01/31 05:27:54;;;;;;;11.73;6.17;;;-0.20;74.60;;;;;;5012293;28;20438;-71
2021/01/31 05:30:20;;;;;;;14.23;6.83;;;-0.30;74.60;;;;;;5012990;28;20588;-71
2021/01/31 05:33:15;;;;;;;11.60;6.97;;;-0.20;74.80;;;;;;5012181;28;20434;-71
2021/01/31 05:35:45;;;;;;;12.40;6.77;;;-0.30;74.60;;;;;;5013105;28;20414;-72
2021/01/31 05:38:13;;;;;;;13.50;6.90;;;-0.30;74.50;;;;;;5015925;28;20414;-73
2021/01/31 05:40:42;;;;;;;12.77;6.03;;;-0.30;74.60;;;;;;5015524;28;20412;-72
2021/01/31 05:43:21;;;;;;;15.17;5.73;;;-0.30;74.70;;;;;;5015351;28;20822;-73
2021/01/31 05:45:47;;;;;;;15.80;7.20;;;-0.30;74.70;;;;;;5030585;28;20397;-71
2021/01/31 05:48:22;;;;;;;9.07;5.93;;;-0.30;74.90;;;;;;5015523;28;20929;-71
2021/01/31 05:50:49;;;;;;;11.20;5.40;;;-0.30;74.60;;;;;;5015718;28;20202;-72
2021/01/31 05:53:28;;;;;;;13.67;6.43;;;-0.30;74.70;;;;;;5015386;28;20481;-73
2021/01/31 05:56:27;;;;;;;11.47;6.33;;;-0.40;74.60;;;;;;5015767;28;20412;-71
2021/01/31 05:59:09;;;;;;;11.17;6.00;;;-0.40;74.90;;;;;;5015218;28;20418;-72
2021/01/31 06:01:53;;;;;;;13.10;6.27;;;-0.40;74.80;;;;;;5030687;28;20414;-71
2021/01/31 06:04:20;;;;;;;14.80;7.17;;;-0.40;75.10;;;;;;5015932;28;20515;-71
2021/01/31 06:06:46;;;;;;;13.63;6.77;;;-0.40;75.40;;;;;;5030420;28;20417;-72
2021/01/31 06:09:21;;;;;;;10.43;7.23;;;-0.40;75.40;;;;;;5015339;28;20410;-72
2021/01/31 06:11:48;;;;;;;10.30;5.93;;;-0.50;75.30;;;;;;5015847;28;20413;-71
2021/01/31 06:14:13;;;;;;;12.90;7.50;;;-0.50;75.40;;;;;;5030038;28;20425;-71
2021/01/31 06:16:41;;;;;;;12.43;7.30;;;-0.50;75.40;;;;;;5014920;28;20417;-72
2021/01/31 06:19:27;;;;;;;12.13;6.00;;;-0.50;75.70;;;;;;5030877;28;20205;-73
2021/01/31 06:21:53;;;;;;;11.33;7.00;;;-0.50;75.60;;;;;;5014953;28;20596;-72
2021/01/31 06:24:24;;;;;;;14.97;6.53;;;-0.50;75.40;;;;;;5014995;28;20461;-72
2021/01/31 06:26:50;;;;;;;11.47;6.20;;;-0.50;75.10;;;;;;5020221;28;20634;-72
2021/01/31 06:29:38;;;;;;;12.50;6.37;;;-0.50;75.10;;;;;;5023141;28;20414;-71
2021/01/31 06:32:19;;;;;;;12.87;6.37;;;-0.60;75.30;;;;;;5016795;28;21024;-72
2021/01/31 06:34:52;;;;;;;14.00;6.40;;;-0.60;75.40;;;;;;5021544;28;20406;-72
2021/01/31 06:37:34;;;;;;;11.10;5.80;;;-0.60;75.60;;;;;;5014994;28;20394;-71
2021/01/31 06:40:25;;;;;;;13.97;6.47;;;-0.70;75.60;;;;;;5030080;28;20947;-72
2021/01/31 06:43:19;;;;;;;10.03;5.97;;;-0.70;75.50;;;;;;5015800;28;20450;-72
2021/01/31 06:45:51;;;;;;;9.53;5.60;;;-0.60;75.90;;;;;;5014081;28;20418;-72
2021/01/31 06:48:41;;;;;;;10.17;5.73;;;-0.70;75.70;;;;;;5013734;28;20413;-72
2021/01/31 06:51:37;;;;;;;15.23;7.63;;;-0.70;75.80;;;;;;5014294;28;20402;-73
2021/01/31 06:54:35;;;;;;;10.70;5.63;;;-0.60;75.90;;;;;;5029767;28;20437;-73
2021/01/31 06:57:28;;;;;;;12.57;6.30;;;-0.70;75.90;;;;;;5020454;28;21047;-73
2021/01/31 07:00:02;;;;;;;16.30;8.10;;;-0.70;76.00;;;;;;5029808;28;20467;-71
2021/01/31 07:02:36;;;;;;;15.17;7.90;;;-0.70;76.20;;;;;;5013979;28;20449;-71
2021/01/31 07:05:09;;;;;;;12.03;6.67;;;-0.70;76.40;;;;;;5014538;28;20421;-71
2021/01/31 07:08:03;;;;;;;11.77;6.63;;;-0.80;76.50;;;;;;5012337;28;20414;-72
2021/01/31 07:10:41;;;;;;;13.40;6.40;;;-0.80;76.80;;;;;;5012874;28;20409;-72
2021/01/31 07:13:15;;;;;;;13.07;6.30;;;-0.80;77.10;;;;;;4996483;28;20469;-72
2021/01/31 07:16:13;;;;;;;13.37;7.87;;;-0.80;77.00;;;;;;5013539;28;20441;-72
2021/01/31 07:19:06;;;;;;;17.67;7.20;;;-0.80;77.10;;;;;;5013515;28;20510;-71
2021/01/31 07:21:48;;;;;;;13.33;6.10;;;-0.70;77.20;;;;;;5002117;28;20422;-72
2021/01/31 07:24:31;;;;;;;13.17;6.57;;;-0.70;77.00;;;;;;4992707;28;20459;-72
2021/01/31 07:27:01;;;;;;;13.63;6.83;;;-0.70;76.80;;;;;;4994282;28;20438;-72
2021/01/31 07:29:35;;;;;;;11.17;6.53;;;-0.70;76.70;;;;;;4993075;28;20422;-73
2021/01/31 07:32:07;;;;;;;15.03;7.40;;;-0.70;76.50;;;;;;4994323;28;20469;-73
2021/01/31 07:34:47;;;;;;;14.47;7.13;;;-0.70;76.50;;;;;;4994158;28;20410;-73
2021/01/31 07:37:18;;;;;;;15.07;8.00;;;-0.70;76.60;;;;;;4994855;28;20470;-72
2021/01/31 07:39:54;;;;;;;11.33;6.67;;;-0.70;76.70;;;;;;4997982;28;20403;-72
2021/01/31 07:42:21;;;;;;;12.33;5.77;;;-0.70;76.60;;;;;;4993721;28;20444;-72
2021/01/31 07:44:49;;;;;;;10.00;6.10;;;-0.60;76.50;;;;;;4994050;28;20411;-74
2021/01/31 07:47:14;;;;;;;17.90;9.20;;;-0.60;76.60;;;;;;4989179;28;20414;-70
2021/01/31 07:49:55;;;;;;;14.43;6.67;;;-0.60;76.40;;;;;;4993280;28;20426;-71
2021/01/31 07:52:26;;;;;;;14.80;6.93;;;-0.50;76.20;;;;;;4992721;28;20190;-73
2021/01/31 07:55:14;;;;;;;12.67;6.43;;;-0.50;76.00;;;;;;4998611;28;20410;-78
2021/01/31 07:57:41;;;;;;;14.80;7.30;;;-0.50;75.60;;;;;;5003268;28;20960;-76
2021/01/31 08:00:20;;;;;;;11.20;6.00;;;-0.50;75.90;;;;;;5003147;28;20399;-77
2021/01/31 08:02:54;;;;;;;15.50;7.33;;;-0.50;75.90;;;;;;5002465;28;20457;-77
2021/01/31 08:05:59;;;;;;;14.00;7.77;;;-0.50;75.80;;;;;;4998867;28;20844;-77
2021/01/31 08:08:38;;;;;;;11.27;5.33;;;-0.50;75.70;;;;;;5012485;28;20429;-78
2021/01/31 08:11:08;;;;;;;16.80;7.60;;;-0.50;75.40;;;;;;5029183;28;20405;-75
2021/01/31 08:13:47;;;;;;;12.53;5.90;;;-0.40;75.40;;;;;;5014213;28;20439;-76
2021/01/31 08:16:47;;;;;;;12.50;6.23;;;-0.40;75.30;;;;;;5017314;28;20417;-78
2021/01/31 08:19:18;;;;;;;13.93;7.20;;;-0.30;75.20;;;;;;5053127;28;20425;-77
2021/01/31 08:21:52;;;;;;;13.97;7.60;;;-0.30;74.70;;;;;;5024331;28;20418;-76
2021/01/31 08:24:55;;;;;;;14.07;7.30;;;-0.30;74.30;;;;;;4997466;28;20473;-77
2021/01/31 08:27:40;;;;;;;10.87;5.37;;;-0.20;73.70;;;;;;4997398;28;20919;-77
2021/01/31 08:30:33;;;;;;;11.03;7.17;;;-0.20;73.40;;;;;;4982695;28;20410;-77
2021/01/31 08:32:59;;;;;;;20.17;7.60;;;-0.10;73.20;;;;;;5015590;28;20474;-76
2021/01/31 08:35:30;;;;;;;12.43;6.67;;;-0.10;73.30;;;;;;5015992;28;20391;-77
2021/01/31 08:38:20;;;;;;;11.57;6.67;;;-0.10;73.10;;;;;;5008913;28;20194;-77
2021/01/31 08:41:01;;;;;;;14.57;6.47;;;0.00;72.90;;;;;;4996353;28;20410;-76
2021/01/31 08:43:47;;;;;;;12.17;6.87;;;0.00;72.70;;;;;;4995276;28;20813;-77
2021/01/31 08:46:20;;;;;;;12.13;7.23;;;0.10;72.40;;;;;;4993036;28;20422;-76
2021/01/31 08:49:02;;;;;;;13.57;6.57;;;0.10;72.30;;;;;;5012258;28;20402;-76
2021/01/31 08:51:33;;;;;;;11.43;7.07;;;0.10;71.80;;;;;;5007082;28;20426;-77
2021/01/31 08:54:06;;;;;;;16.07;6.70;;;0.10;71.30;;;;;;4994171;28;20999;-76
2021/01/31 08:56:39;;;;;;;13.30;7.40;;;0.20;71.40;;;;;;4994307;28;20924;-76
2021/01/31 08:59:09;;;;;;;11.37;5.90;;;0.20;71.30;;;;;;4994320;28;20422;-77
2021/01/31 09:01:58;;;;;;;11.37;5.80;;;0.30;71.50;;;;;;4993779;28;20928;-77
2021/01/31 09:04:25;;;;;;;11.40;6.90;;;0.30;71.40;;;;;;4992443;28;20556;-76
2021/01/31 09:06:52;;;;;;;13.10;7.00;;;0.40;71.20;;;;;;4994743;28;20825;-77
2021/01/31 09:09:40;;;;;;;12.20;7.30;;;0.40;71.10;;;;;;4995225;28;20506;-77
2021/01/31 09:12:10;;;;;;;12.63;5.90;;;0.50;70.50;;;;;;4997606;28;20444;-78
2021/01/31 09:14:38;;;;;;;10.60;6.60;;;0.60;70.20;;;;;;5004546;28;20481;-79
2021/01/31 09:17:24;;;;;;;9.70;6.30;;;0.60;70.00;;;;;;5008256;28;20915;-78
2021/01/31 09:19:50;;;;;;;12.60;6.40;;;0.70;69.40;;;;;;5018788;28;20517;-77
2021/01/31 09:22:22;;;;;;;12.13;6.30;;;0.80;69.10;;;;;;5016553;28;20425;-77
2021/01/31 09:24:58;;;;;;;10.33;6.60;;;0.90;68.20;;;;;;5016606;28;20414;-77
2021/01/31 09:27:26;;;;;;;11.33;6.37;;;0.90;67.60;;;;;;5015123;28;20426;-77
2021/01/31 09:30:04;;;;;;;10.50;6.90;;;1.00;67.10;;;;;;5013102;28;20430;-77
2021/01/31 09:32:42;;;;;;;9.37;5.80;;;1.70;68.00;;;;;;4997742;28;20449;-76
2021/01/31 09:35:11;;;;;;;7.93;5.07;;;3.40;62.40;;;;;;4996967;28;20402;-77
2021/01/31 09:37:37;;;;;;;8.53;5.37;;;4.50;58.60;;;;;;5000658;28;20520;-77
2021/01/31 09:40:07;;;;;;;10.70;5.77;;;5.00;55.20;;;;;;5016050;28;20410;-77
2021/01/31 09:42:36;;;;;;;15.73;6.57;;;4.90;55.50;;;;;;5011363;28;21028;-77
2021/01/31 09:45:04;;;;;;;9.60;5.70;;;5.40;54.70;;;;;;4995258;28;20913;-77
2021/01/31 09:47:30;;;;;;;10.87;6.37;;;5.80;53.80;;;;;;4996282;28;20406;-77
2021/01/31 09:50:01;;;;;;;9.00;5.60;;;6.40;53.40;;;;;;5011488;28;20414;-77
2021/01/31 09:52:28;;;;;;;9.50;6.07;;;6.80;51.80;;;;;;4997616;28;20423;-75
2021/01/31 09:54:53;;;;;;;11.30;6.40;;;6.90;51.30;;;;;;4996990;28;20957;-76
2021/01/31 09:57:27;;;;;;;9.50;4.53;;;6.90;50.50;;;;;;4996106;28;20555;-76
2021/01/31 10:00:09;;;;;;;8.73;5.53;;;6.90;49.40;;;;;;4995828;28;20657;-76
2021/01/31 10:02:38;;;;;;;7.73;4.73;;;6.50;50.20;;;;;;4998173;28;20457;-76
2021/01/31 10:05:09;;;;;;;11.87;6.17;;;6.20;50.90;;;;;;5015501;28;20772;-77
2021/01/31 10:07:42;;;;;;;8.83;6.23;;;5.90;50.70;;;;;;5002511;28;20406;-76
2021/01/31 10:10:22;;;;;;;13.57;6.60;;;5.90;52.20;;;;;;5015618;28;20406;-75
2021/01/31 10:12:49;;;;;;;12.23;6.17;;;5.90;52.00;;;;;;5011466;28;20450;-75
2021/01/31 10:15:35;;;;;;;9.90;4.97;;;5.90;52.10;;;;;;4996013;28;20422;-76
2021/01/31 10:18:01;;;;;;;6.30;4.67;;;5.90;51.70;;;;;;4995325;28;20415;-76
2021/01/31 10:20:30;;;;;;;8.63;5.40;;;5.60;51.90;;;;;;5012358;28;20923;-76
2021/01/31 10:23:02;;;;;;;9.10;5.80;;;5.30;52.70;;;;;;5009209;28;20238;-76
2021/01/31 10:25:28;;;;;;;9.93;5.90;;;5.10;53.30;;;;;;4996210;28;20434;-76
2021/01/31 10:27:57;;;;;;;11.60;6.80;;;4.80;54.20;;;;;;5014825;28;20426;-76
2021/01/31 10:30:38;;;;;;;11.83;5.80;;;4.40;54.40;;;;;;5015476;28;20887;-76
2021/01/31 10:33:04;;;;;;;10.93;5.57;;;4.10;54.90;;;;;;5024576;28;20537;-76
2021/01/31 10:35:35;;;;;;;8.63;6.00;;;3.70;56.80;;;;;;5000552;28;20426;-76
2021/01/31 10:38:26;;;;;;;7.93;4.67;;;3.60;56.90;;;;;;4992205;28;20990;-76
2021/01/31 10:40:52;;;;;;;8.67;4.60;;;3.50;56.80;;;;;;4993960;28;20486;-76
2021/01/31 10:43:19;;;;;;;10.50;5.50;;;3.40;57.50;;;;;;5009552;28;20518;-76
2021/01/31 10:45:45;;;;;;;11.60;6.07;;;3.20;57.70;;;;;;4993996;28;20426;-76
2021/01/31 10:48:11;;;;;;;8.60;5.40;;;3.10;58.80;;;;;;5010891;28;20407;-76
2021/01/31 10:50:36;;;;;;;10.70;5.30;;;3.20;59.10;;;;;;4996121;28;20191;-76
2021/01/31 10:53:02;;;;;;;7.50;4.67;;;3.40;58.80;;;;;;5004331;28;20227;-76
2021/01/31 10:55:28;;;;;;;7.73;5.03;;;3.50;58.00;;;;;;5018007;28;20179;-77
2021/01/31 10:57:54;;;;;;;9.23;4.30;;;3.50;57.60;;;;;;5003159;28;20171;-76
2021/01/31 11:00:20;;;;;;;11.30;5.87;;;3.40;57.90;;;;;;4994946;28;20267;-75
2021/01/31 11:02:45;;;;;;;6.97;3.90;;;3.40;58.10;;;;;;4999862;28;20199;-76
2021/01/31 11:05:12;;;;;;;8.50;5.50;;;3.30;58.10;;;;;;5014430;28;20426;-76
2021/01/31 11:07:37;;;;;;;9.80;5.57;;;3.10;58.40;;;;;;5014698;28;20185;-76
2021/01/31 11:10:04;;;;;;;8.87;6.10;;;2.80;59.10;;;;;;5015157;28;20407;-76
2021/01/31 11:12:30;;;;;;;8.87;6.00;;;2.70;60.10;;;;;;5015303;28;20218;-77
2021/01/31 11:14:55;;;;;;;11.40;4.97;;;2.80;60.60;;;;;;5016079;28;20409;-77
2021/01/31 11:17:22;;;;;;;9.90;4.43;;;2.90;60.80;;;;;;5016872;28;20164;-75
2021/01/31 11:19:47;;;;;;;9.33;4.20;;;3.00;60.50;;;;;;5012797;28;20163;-76
2021/01/31 11:22:13;;;;;;;10.03;4.27;;;3.10;60.00;;;;;;5012890;28;20441;-76
2021/01/31 11:24:38;;;;;;;6.17;4.10;;;3.20;59.70;;;;;;5012841;28;20195;-77
2021/01/31 11:27:04;;;;;;;8.60;3.97;;;3.10;59.60;;;;;;5011656;28;20174;-76
2021/01/31 11:29:30;;;;;;;5.87;3.90;;;3.10;60.00;;;;;;5012618;28;20607;-76
2021/01/31 11:31:56;;;;;;;4.90;3.30;;;3.20;60.10;;;;;;5013013;28;20163;-76
2021/01/31 11:34:22;;;;;;;5.90;3.70;;;3.20;59.90;;;;;;5012606;28;20641;-77
2021/01/31 11:36:48;;;;;;;7.77;4.33;;;3.20;60.00;;;;;;5013124;28;20493;-76
2021/01/31 11:39:13;;;;;;;7.20;4.23;;;3.20;59.70;;;;;;5012927;28;20171;-75
2021/01/31 11:41:39;;;;;;;7.00;3.83;;;3.20;60.20;;;;;;5013722;28;20480;-77
2021/01/31 11:44:07;;;;;;;7.40;3.97;;;3.10;60.20;;;;;;5014201;28;20203;-76
2021/01/31 11:46:34;;;;;;;8.47;4.63;;;3.00;60.20;;;;;;5013318;28;20406;-76
2021/01/31 11:49:00;;;;;;;6.13;4.47;;;2.90;60.40;;;;;;5013252;28;20480;-77
2021/01/31 11:51:26;;;;;;;6.50;4.37;;;2.90;61.50;;;;;;5015408;28;20497;-76
2021/01/31 11:53:52;;;;;;;5.33;4.10;;;2.80;61.30;;;;;;5029740;28;20470;-78
2021/01/31 11:56:17;;;;;;;5.90;4.00;;;2.80;61.40;;;;;;5013275;28;20179;-77
2021/01/31 11:58:43;;;;;;;8.87;5.00;;;2.80;61.60;;;;;;5014157;28;20171;-77
2021/01/31 12:01:12;;;;;;;5.13;3.40;;;2.80;61.90;;;;;;5012595;28;20170;-78
2021/01/31 12:03:38;;;;;;;5.40;3.50;;;2.90;61.70;;;;;;5028434;28;20207;-76
2021/01/31 12:06:04;;;;;;;6.97;4.73;;;3.10;61.80;;;;;;5013961;28;20464;-77
2021/01/31 12:08:30;;;;;;;9.07;3.87;;;3.10;61.80;;;;;;5015186;28;20183;-77
2021/01/31 12:10:55;;;;;;;6.93;4.17;;;3.10;60.60;;;;;;5014434;28;20414;-76
2021/01/31 12:13:21;;;;;;;6.10;3.67;;;3.10;61.10;;;;;;5013506;28;20234;-75
2021/01/31 12:15:47;;;;;;;6.93;4.00;;;3.10;61.50;;;;;;5014039;28;20163;-76
2021/01/31 12:18:14;;;;;;;8.00;4.00;;;3.00;61.00;;;;;;5013081;28;20218;-77
2021/01/31 12:20:39;;;;;;;5.80;4.00;;;2.90;61.70;;;;;;5015030;28;20791;-77
2021/01/31 12:23:05;;;;;;;7.00;3.60;;;2.90;61.80;;;;;;5013904;28;20446;-77
2021/01/31 12:25:31;;;;;;;5.57;3.60;;;2.90;61.90;;;;;;5014084;28;20195;-77
2021/01/31 12:27:58;;;;;;;6.90;3.80;;;2.80;62.00;;;;;;5013687;28;20398;-76
2021/01/31 12:30:28;;;;;;;7.10;4.03;;;2.90;62.40;;;;;;5016015;28;20445;-77
2021/01/31 12:32:55;;;;;;;6.30;3.87;;;2.90;62.50;;;;;;5014263;28;20446;-77
2021/01/31 12:35:21;;;;;;;6.83;3.77;;;2.90;62.20;;;;;;5014114;28;20440;-77
2021/01/31 12:37:48;;;;;;;6.07;3.50;;;3.00;62.40;;;;;;5016881;28;20429;-77
2021/01/31 12:40:15;;;;;;;7.27;3.87;;;3.10;62.50;;;;;;5025503;28;20406;-76
2021/01/31 12:42:43;;;;;;;6.53;3.60;;;3.20;62.40;;;;;;5034080;28;20453;-76
2021/01/31 12:45:10;;;;;;;6.97;4.67;;;3.40;62.40;;;;;;5031667;28;20493;-77
2021/01/31 12:47:36;;;;;;;6.23;3.70;;;3.50;61.60;;;;;;5016786;28;20492;-78
2021/01/31 12:50:04;;;;;;;8.23;4.90;;;3.60;61.10;;;;;;5016393;28;20413;-77
2021/01/31 12:52:30;;;;;;;7.13;4.47;;;3.60;60.80;;;;;;5018073;28;20449;-77
2021/01/31 12:54:55;;;;;;;9.30;4.10;;;3.70;60.70;;;;;;5032106;28;20414;-76
2021/01/31 12:57:21;;;;;;;6.70;4.20;;;3.80;60.20;;;;;;5034901;28;20151;-77
2021/01/31 12:59:47;;;;;;;8.40;4.50;;;3.80;60.20;;;;;;5030572;28;20556;-77
2021/01/31 13:02:12;;;;;;;6.67;3.43;;;3.80;60.30;;;;;;5022449;28;20222;-77
2021/01/31 13:04:41;;;;;;;7.33;3.50;;;3.80;60.50;;;;;;5013850;28;20253;-75
2021/01/31 13:07:07;;;;;;;6.80;4.03;;;3.70;60.30;;;;;;5012755;28;20175;-77
2021/01/31 13:09:32;;;;;;;6.90;3.70;;;3.70;61.50;;;;;;5010471;28;20413;-76
2021/01/31 13:11:58;;;;;;;6.17;3.73;;;3.70;60.60;;;;;;5011920;28;20398;-76
2021/01/31 13:14:25;;;;;;;5.10;3.37;;;3.70;60.60;;;;;;5012280;28;20662;-77
2021/01/31 13:16:51;;;;;;;8.13;4.37;;;3.80;60.90;;;;;;5011943;28;20750;-75
2021/01/31 13:19:17;;;;;;;5.70;4.10;;;3.90;60.40;;;;;;5011809;28;20409;-77